createdAt,value
2019-04-05T00:00:44.270Z,67.10
2019-04-05T00:03:14.844Z,67.30
2019-04-05T00:05:45.448Z,67.20
2019-04-05T00:08:16.829Z,66.80
2019-04-05T00:10:47.473Z,66.80
2019-04-05T00:13:18.091Z,67.30
2019-04-05T00:15:48.746Z,67.50
2019-04-05T00:18:19.350Z,66.70
2019-04-05T00:20:49.989Z,67.30
2019-04-05T00:23:20.572Z,67.40
2019-04-05T00:25:51.206Z,66.70
2019-04-05T00:28:21.749Z,67.60
2019-04-05T00:30:55.116Z,67.80
2019-04-05T00:33:25.736Z,67.80
2019-04-05T00:35:56.345Z,67.90
2019-04-05T00:38:26.891Z,67.50
2019-04-05T00:40:57.491Z,68.10
2019-04-05T00:43:28.054Z,67.80
2019-04-05T00:45:58.659Z,67.60
2019-04-05T00:48:29.283Z,67.60
2019-04-05T00:50:59.890Z,68.10
2019-04-05T00:53:31.469Z,68.20
2019-04-05T00:56:02.165Z,68.10
2019-04-05T00:58:32.801Z,68.30
2019-04-05T01:01:03.580Z,69.30
2019-04-05T01:03:34.687Z,69.50
2019-04-05T01:06:05.403Z,69.40
2019-04-05T01:08:36.925Z,69.00
2019-04-05T01:11:07.551Z,69.70
2019-04-05T01:13:39.872Z,69.70
2019-04-05T01:16:10.533Z,70.00
2019-04-05T01:18:41.192Z,69.90
2019-04-05T01:21:16.215Z,69.70
2019-04-05T01:23:47.605Z,70.20
2019-04-05T01:26:21.565Z,70.20
2019-04-05T01:28:52.251Z,70.50
2019-04-05T01:31:22.888Z,70.50
2019-04-05T01:33:53.505Z,71.70
2019-04-05T01:36:24.145Z,71.40
2019-04-05T01:38:57.326Z,71.00
2019-04-05T01:41:27.940Z,71.00
2019-04-05T01:43:58.508Z,70.60
2019-04-05T01:46:29.359Z,70.20
2019-04-05T01:48:59.977Z,70.00
2019-04-05T01:51:30.589Z,70.60
2019-04-05T01:54:01.257Z,70.90
2019-04-05T01:56:31.941Z,70.50
2019-04-05T01:59:02.581Z,70.10
2019-04-05T02:01:33.704Z,69.60
2019-04-05T02:04:04.489Z,69.50
2019-04-05T02:06:35.539Z,69.30
2019-04-05T02:09:11.352Z,69.20
2019-04-05T02:11:42.101Z,69.70
2019-04-05T02:14:13.091Z,69.70
2019-04-05T02:16:43.838Z,69.70
2019-04-05T02:19:14.618Z,70.00
2019-04-05T02:22:00.352Z,69.10
2019-04-05T02:24:31.649Z,69.70
2019-04-05T02:27:02.307Z,69.70
2019-04-05T02:29:39.131Z,69.50
2019-04-05T02:32:09.847Z,69.80
2019-04-05T02:34:40.457Z,69.50
2019-04-05T02:37:11.319Z,69.50
2019-04-05T02:39:41.943Z,69.80
2019-04-05T02:42:14.398Z,70.10
2019-04-05T02:44:47.275Z,70.50
2019-04-05T02:47:18.419Z,70.70
2019-04-05T02:49:50.160Z,70.30
2019-04-05T02:52:22.330Z,71.00
2019-04-05T02:54:54.260Z,70.60
2019-04-05T02:57:25.986Z,70.80
2019-04-05T02:59:57.598Z,70.70
2019-04-05T03:02:29.210Z,71.50
2019-04-05T03:05:00.027Z,71.00
2019-04-05T03:07:31.270Z,70.60
2019-04-05T03:10:03.899Z,71.00
2019-04-05T03:12:36.354Z,71.30
2019-04-05T03:15:09.219Z,70.50
2019-04-05T03:17:40.375Z,70.60
2019-04-05T03:20:25.384Z,70.80
2019-04-05T03:23:01.928Z,70.50
2019-04-05T03:25:34.718Z,71.20
2019-04-05T03:28:06.347Z,71.40
2019-04-05T03:30:37.745Z,71.70
2019-04-05T03:33:09.921Z,71.90
2019-04-05T03:35:41.960Z,71.60
2019-04-05T03:38:13.119Z,71.20
2019-04-05T03:40:44.542Z,71.40
2019-04-05T03:43:16.077Z,72.00
2019-04-05T03:45:48.390Z,71.80
2019-04-05T03:48:19.705Z,71.90
2019-04-05T03:50:50.433Z,71.70
2019-04-05T03:53:21.443Z,72.10
2019-04-05T03:55:52.238Z,72.90
2019-04-05T03:58:22.907Z,73.60
2019-04-05T04:00:54.391Z,72.40
2019-04-05T04:03:25.440Z,73.20
2019-04-05T04:05:56.326Z,73.70
2019-04-05T04:08:26.970Z,72.30
2019-04-05T04:10:58.473Z,72.70
2019-04-05T04:13:29.608Z,72.50
2019-04-05T04:16:01.400Z,72.80
2019-04-05T04:18:32.926Z,73.00
2019-04-05T04:21:13.771Z,73.80
2019-04-05T04:23:44.873Z,74.10
2019-04-05T04:26:15.497Z,74.50
2019-04-05T04:28:46.451Z,73.50
2019-04-05T04:31:17.027Z,73.50
2019-04-05T04:33:48.672Z,73.10
2019-04-05T04:36:19.754Z,73.30
2019-04-05T04:38:51.465Z,73.20
2019-04-05T04:41:22.579Z,73.50
2019-04-05T04:43:54.575Z,72.60
2019-04-05T04:46:25.593Z,73.20
2019-04-05T04:48:56.604Z,73.30
2019-04-05T04:51:27.716Z,72.30
2019-04-05T04:53:59.056Z,72.60
2019-04-05T04:56:30.348Z,71.60
2019-04-05T04:59:01.553Z,70.70
2019-04-05T05:01:32.329Z,69.50
2019-04-05T05:04:03.990Z,68.90
2019-04-05T05:06:35.259Z,67.10
2019-04-05T05:09:10.597Z,66.30
2019-04-05T05:11:46.305Z,65.40
2019-04-05T05:14:17.147Z,64.50
2019-04-05T05:16:48.261Z,63.60
2019-04-05T05:19:25.693Z,62.70
2019-04-05T05:21:56.598Z,62.30
2019-04-05T05:24:28.354Z,60.50
2019-04-05T05:27:01.757Z,61.40
2019-04-05T05:29:32.866Z,60.90
2019-04-05T05:32:03.900Z,59.90
2019-04-05T05:34:34.945Z,58.40
2019-04-05T05:37:06.361Z,58.60
2019-04-05T05:39:36.970Z,57.00
2019-04-05T05:42:07.600Z,56.60
2019-04-05T05:44:38.254Z,56.60
2019-04-05T05:47:18.273Z,57.00
2019-04-05T05:49:50.609Z,56.10
2019-04-05T05:52:22.034Z,56.10
2019-04-05T05:54:52.693Z,57.20
2019-04-05T05:57:23.613Z,57.90
2019-04-05T05:59:54.263Z,58.30
2019-04-05T06:02:25.685Z,57.70
2019-04-05T06:04:56.388Z,57.90
2019-04-05T06:07:27.035Z,57.60
2019-04-05T06:09:57.683Z,56.50
2019-04-05T06:12:29.219Z,56.10
2019-04-05T06:14:59.832Z,56.10
2019-04-05T06:17:30.461Z,56.20
2019-04-05T06:20:02.785Z,55.60
2019-04-05T06:22:33.384Z,55.40
2019-04-05T06:25:04.909Z,55.60
2019-04-05T06:27:35.613Z,55.40
2019-04-05T06:30:08.386Z,54.60
2019-04-05T06:32:39.007Z,54.70
2019-04-05T06:35:09.962Z,55.30
2019-04-05T06:37:40.548Z,55.60
2019-04-05T06:40:12.390Z,55.00
2019-04-05T06:42:42.906Z,54.70
2019-04-05T06:45:17.075Z,52.90
2019-04-05T06:47:47.705Z,52.00
2019-04-05T06:50:18.556Z,51.20
2019-04-05T06:52:49.843Z,51.50
2019-04-05T06:55:20.492Z,52.20
2019-04-05T06:57:52.131Z,50.60
2019-04-05T07:00:27.143Z,50.40
2019-04-05T07:02:59.122Z,49.80
2019-04-05T07:05:29.760Z,49.10
2019-04-05T07:08:00.380Z,48.60
2019-04-05T07:10:31.031Z,48.90
2019-04-05T07:13:02.606Z,49.00
2019-04-05T07:15:33.310Z,49.90
2019-04-05T07:18:03.950Z,48.90
2019-04-05T07:20:34.616Z,48.90
2019-04-05T07:23:05.769Z,48.80
2019-04-05T07:25:49.723Z,48.00
2019-04-05T07:28:20.314Z,46.70
2019-04-05T07:30:50.965Z,47.40
2019-04-05T07:33:22.093Z,47.50
2019-04-05T07:35:52.738Z,48.60
2019-04-05T07:38:23.320Z,48.10
2019-04-05T07:40:53.976Z,47.10
2019-04-05T07:43:24.817Z,47.20
2019-04-05T07:45:55.842Z,47.00
2019-04-05T07:48:26.454Z,47.30
2019-04-05T07:50:58.448Z,47.00
2019-04-05T07:53:28.912Z,47.30
2019-04-05T07:56:03.370Z,46.80
2019-04-05T07:58:33.991Z,46.20
2019-04-05T08:01:06.433Z,45.60
2019-04-05T08:03:37.223Z,45.30
2019-04-05T08:06:07.827Z,45.40
2019-04-05T08:08:54.950Z,45.90
2019-04-05T08:11:26.785Z,46.40
2019-04-05T08:14:01.859Z,46.80
2019-04-05T08:16:32.464Z,46.70
2019-04-05T08:19:03.088Z,47.60
2019-04-05T08:21:34.013Z,47.80
2019-04-05T08:24:05.022Z,47.70
2019-04-05T08:26:44.927Z,48.40
2019-04-05T08:29:15.507Z,46.60
2019-04-05T08:31:46.690Z,45.60
2019-04-05T08:34:17.305Z,44.20
2019-04-05T08:36:47.876Z,44.60
2019-04-05T08:39:18.402Z,44.50
2019-04-05T08:41:51.027Z,45.00
2019-04-05T08:44:21.614Z,43.70
2019-04-05T08:46:52.231Z,43.80
2019-04-05T08:49:47.655Z,42.80
2019-04-05T08:52:18.266Z,42.80
2019-04-05T08:54:48.797Z,42.80
2019-04-05T08:57:19.679Z,42.40
2019-04-05T08:59:53.448Z,42.90
2019-04-05T09:02:24.080Z,43.40
2019-04-05T09:04:54.705Z,42.80
2019-04-05T09:07:25.284Z,42.70
2019-04-05T09:09:55.837Z,42.20
2019-04-05T09:12:26.439Z,42.90
2019-04-05T09:14:57.917Z,43.10
2019-04-05T09:17:28.553Z,43.30
2019-04-05T09:19:59.112Z,43.00
2019-04-05T09:22:29.647Z,43.50
2019-04-05T09:25:00.231Z,43.10
2019-04-05T09:27:30.892Z,43.00
2019-04-05T09:30:01.517Z,43.50
2019-04-05T09:32:32.149Z,43.70
2019-04-05T09:35:02.949Z,43.70
2019-04-05T09:37:33.677Z,44.00
2019-04-05T09:40:06.536Z,44.40
2019-04-05T09:42:37.140Z,45.20
2019-04-05T09:45:08.135Z,46.10
2019-04-05T09:47:38.684Z,45.90
2019-04-05T09:50:09.812Z,46.70
2019-04-05T09:52:40.452Z,47.70
2019-04-05T09:55:32.274Z,48.80
2019-04-05T09:58:03.006Z,49.70
2019-04-05T10:00:33.581Z,49.80
2019-04-05T10:03:04.538Z,51.70
2019-04-05T10:05:35.083Z,52.30
2019-04-05T10:08:06.954Z,52.00
2019-04-05T10:10:37.536Z,51.30
2019-04-05T10:13:09.763Z,51.90
2019-04-05T10:15:41.579Z,52.20
2019-04-05T10:18:12.582Z,52.70
2019-04-05T10:20:43.171Z,51.50
2019-04-05T10:23:13.806Z,51.60
2019-04-05T10:25:44.439Z,51.50
2019-04-05T10:28:15.049Z,51.60
2019-04-05T10:30:45.796Z,51.40
2019-04-05T10:33:17.033Z,50.80
2019-04-05T10:35:47.547Z,50.60
2019-04-05T10:38:18.199Z,51.00
2019-04-05T10:40:48.780Z,50.20
2019-04-05T10:43:19.421Z,49.90
2019-04-05T10:45:49.939Z,50.60
2019-04-05T10:48:21.059Z,51.70
2019-04-05T10:50:51.950Z,51.70
2019-04-05T11:11:05.704Z,50.80
2019-04-05T11:13:36.490Z,51.00
2019-04-05T11:16:07.945Z,51.60
2019-04-05T11:18:38.588Z,51.50
2019-04-05T11:21:09.354Z,51.90
2019-04-05T11:23:40.204Z,51.20
2019-04-05T11:26:10.860Z,51.40
2019-04-05T11:28:41.408Z,51.60
2019-04-05T11:31:12.021Z,51.80
2019-04-05T11:33:43.029Z,51.70
2019-04-05T11:36:14.405Z,52.60
2019-04-05T11:38:45.427Z,52.70
2019-04-05T11:41:18.115Z,52.20
2019-04-05T11:43:51.339Z,52.80
2019-04-05T11:46:22.164Z,53.10
2019-04-05T11:48:53.088Z,53.30
2019-04-05T11:51:24.757Z,52.10
2019-04-05T11:53:55.368Z,52.40
2019-04-05T11:56:25.989Z,52.40
2019-04-05T11:58:57.698Z,53.00
2019-04-05T12:01:29.847Z,52.20
2019-04-05T12:04:00.435Z,52.10
2019-04-05T12:06:30.985Z,53.50
2019-04-05T12:09:02.375Z,52.60
2019-04-05T12:11:32.998Z,51.70
2019-04-05T12:14:03.672Z,51.70
2019-04-05T12:16:36.234Z,51.80
2019-04-05T12:19:07.194Z,51.80
2019-04-05T12:21:37.820Z,52.20
2019-04-05T12:24:08.457Z,52.50
2019-04-05T12:26:39.046Z,53.70
2019-04-05T12:29:09.877Z,52.60
2019-04-05T12:31:40.460Z,53.40
2019-04-05T12:34:11.607Z,53.50
2019-04-05T12:36:42.244Z,53.20
2019-04-05T12:39:12.886Z,53.90
2019-04-05T12:41:45.054Z,53.60
2019-04-05T12:44:15.879Z,54.30
2019-04-05T12:46:46.531Z,53.40
2019-04-05T12:49:17.153Z,52.80
2019-04-05T12:51:47.610Z,52.80
2019-04-05T12:54:18.111Z,51.50
2019-04-05T12:56:48.620Z,51.50
2019-04-05T12:59:19.236Z,52.30
2019-04-05T13:01:49.750Z,52.10
2019-04-05T13:04:21.249Z,51.70
2019-04-05T13:06:52.931Z,52.10
2019-04-05T13:09:25.043Z,51.70
2019-04-05T13:11:57.266Z,51.40
2019-04-05T13:14:28.992Z,52.00
2019-04-05T13:17:02.562Z,52.00
2019-04-05T13:19:33.280Z,51.30
2019-04-05T13:22:04.011Z,53.40
2019-04-05T13:24:34.674Z,51.60
2019-04-05T13:27:05.733Z,52.20
2019-04-05T13:29:36.425Z,52.20
2019-04-05T13:32:07.043Z,52.50
2019-04-05T13:34:37.667Z,52.70
2019-04-05T13:37:19.555Z,52.10
2019-04-05T13:39:40.614Z,52.50
2019-04-05T13:42:11.232Z,52.60
2019-04-05T13:44:41.801Z,53.30
2019-04-05T13:47:18.341Z,52.10
2019-04-05T13:49:51.117Z,52.20
2019-04-05T13:52:21.707Z,52.20
2019-04-05T13:55:00.558Z,52.50
2019-04-05T13:57:31.189Z,52.00
2019-04-05T14:00:02.281Z,52.00
2019-04-05T14:02:32.891Z,51.60
2019-04-05T14:05:04.716Z,52.00
2019-04-05T14:07:37.087Z,51.80
2019-04-05T14:10:12.548Z,51.90
2019-04-05T14:12:43.229Z,51.00
2019-04-05T14:15:14.349Z,51.60
2019-04-05T14:17:45.804Z,51.70
2019-04-05T14:20:19.652Z,52.40
2019-04-05T14:22:52.202Z,51.90
2019-04-05T14:25:26.092Z,52.10
2019-04-05T14:27:56.340Z,52.60
2019-04-05T14:30:26.960Z,53.50
2019-04-05T14:32:57.547Z,52.30
2019-04-05T14:35:28.235Z,52.40
2019-04-05T14:37:58.867Z,52.20
2019-04-05T14:40:32.903Z,53.40
2019-04-05T14:43:02.387Z,52.50
2019-04-05T14:45:32.971Z,53.30
2019-04-05T14:48:03.610Z,53.50
2019-04-05T14:50:35.112Z,53.80
2019-04-05T14:53:06.623Z,53.70
2019-04-05T14:55:37.309Z,53.10
2019-04-05T14:58:10.483Z,53.90
2019-04-05T15:00:40.822Z,53.90
2019-04-05T15:03:11.533Z,54.60
2019-04-05T15:05:45.487Z,54.30
2019-04-05T15:08:20.368Z,54.00
2019-04-05T15:10:51.439Z,54.20
2019-04-05T15:13:22.282Z,54.70
2019-04-05T15:15:55.876Z,54.50
2019-04-05T15:18:27.098Z,54.60
2019-04-05T15:20:57.656Z,54.80
2019-04-05T15:23:33.967Z,54.50
2019-04-05T15:26:04.646Z,54.70
2019-04-05T15:28:35.245Z,54.80
2019-04-05T15:31:05.866Z,54.70
2019-04-05T15:33:36.778Z,54.60
2019-04-05T15:36:07.421Z,54.40
2019-04-05T15:38:38.039Z,54.20
2019-04-05T15:41:08.643Z,55.10
2019-04-05T15:43:39.239Z,55.00
2019-04-05T15:46:09.866Z,55.00
2019-04-05T15:48:40.468Z,55.60
2019-04-05T15:51:11.102Z,55.70
2019-04-05T15:53:41.742Z,55.90
2019-04-05T15:56:12.329Z,56.10
2019-04-05T15:58:52.197Z,55.60
2019-04-05T16:01:21.774Z,56.10
2019-04-05T16:03:52.437Z,55.40
2019-04-05T16:06:23.143Z,56.00
2019-04-05T16:08:53.939Z,56.10
2019-04-05T16:11:24.532Z,56.30
2019-04-05T16:13:55.159Z,56.40
2019-04-05T16:16:26.168Z,55.80
2019-04-05T16:18:58.343Z,56.40
2019-04-05T16:21:29.028Z,56.40
2019-04-05T16:23:59.711Z,57.00
2019-04-05T16:26:30.530Z,56.60
2019-04-05T16:29:02.782Z,56.60
2019-04-05T16:31:33.392Z,57.50
2019-04-05T16:34:05.284Z,60.90
2019-04-05T16:36:35.902Z,62.90
2019-04-05T16:39:09.969Z,65.90
2019-04-05T16:41:40.585Z,68.60
2019-04-05T16:44:11.207Z,70.60
2019-04-05T16:46:42.097Z,70.90
2019-04-05T16:49:12.685Z,71.60
2019-04-05T16:51:43.321Z,72.10
2019-04-05T16:54:14.006Z,72.20
2019-04-05T16:56:44.728Z,73.10
2019-04-05T16:59:15.312Z,74.20
2019-04-05T17:01:45.957Z,75.20
2019-04-05T17:04:16.496Z,74.70
2019-04-05T17:06:47.109Z,74.40
2019-04-05T17:09:17.875Z,74.30
2019-04-05T17:11:49.067Z,74.90
2019-04-05T17:14:19.695Z,74.90
2019-04-05T17:16:50.341Z,75.50
2019-04-05T17:19:23.496Z,75.50
2019-04-05T17:21:54.116Z,73.70
2019-04-05T17:24:24.697Z,74.30
2019-04-05T17:26:55.357Z,75.10
2019-04-05T17:29:25.955Z,76.20
2019-04-05T17:31:57.313Z,77.30
2019-04-05T17:34:27.940Z,77.50
2019-04-05T17:36:58.590Z,77.60
2019-04-05T17:39:29.489Z,76.80
2019-04-05T17:42:00.579Z,77.70
2019-04-05T17:44:32.881Z,77.30
2019-04-05T17:47:03.515Z,77.70
2019-04-05T17:49:34.133Z,78.20
2019-04-05T17:52:04.776Z,78.80
2019-04-05T17:54:35.326Z,78.90
2019-04-05T17:57:05.956Z,79.50
2019-04-05T17:59:38.101Z,80.20
2019-04-05T18:02:09.377Z,80.30
2019-04-05T18:04:39.884Z,80.90
2019-04-05T18:07:11.802Z,80.20
2019-04-05T18:09:42.461Z,79.70
2019-04-05T18:12:14.177Z,79.70
2019-04-05T18:14:44.797Z,79.40
2019-04-05T18:17:16.228Z,79.40
2019-04-05T18:19:47.673Z,79.40
2019-04-05T18:22:18.305Z,79.60
2019-04-05T18:24:49.448Z,78.90
2019-04-05T18:27:20.053Z,79.50
2019-04-05T18:29:51.365Z,79.40
2019-04-05T18:32:22.183Z,80.20
2019-04-05T18:34:53.233Z,81.10
2019-04-05T18:37:24.503Z,81.40
2019-04-05T18:39:55.020Z,81.70
2019-04-05T18:42:25.668Z,82.50
2019-04-05T18:44:56.714Z,82.80
2019-04-05T18:47:28.228Z,82.60
2019-04-05T18:50:03.246Z,83.20
2019-04-05T18:52:32.440Z,83.90
2019-04-05T18:55:03.042Z,84.10
2019-04-05T18:57:34.770Z,85.60
2019-04-05T19:00:08.819Z,86.80
2019-04-05T19:02:41.189Z,88.20
2019-04-05T19:05:12.152Z,89.70
2019-04-05T19:07:43.249Z,90.70
2019-04-05T19:10:17.018Z,91.00
2019-04-05T19:12:50.803Z,91.30
2019-04-05T19:15:21.464Z,91.90
2019-04-05T19:17:52.111Z,92.30
2019-04-05T19:23:23.472Z,93.20
2019-04-05T19:25:55.797Z,93.60
2019-04-05T19:28:26.438Z,93.80
2019-04-05T19:48:43.625Z,98.80
2019-04-05T19:51:16.570Z,99.40
2019-04-05T19:53:47.227Z,99.90
2019-04-05T19:56:17.831Z,99.90
2019-04-05T19:58:49.226Z,99.90
2019-04-05T20:01:19.946Z,99.90
2019-04-05T20:03:50.821Z,99.90
2019-04-05T20:06:22.677Z,99.90
2019-04-05T20:08:53.341Z,99.90
2019-04-05T20:11:23.943Z,99.90
2019-04-05T20:13:54.543Z,99.90
2019-04-05T20:16:28.523Z,99.90
2019-04-05T20:18:57.500Z,99.90
2019-04-05T20:21:28.133Z,99.90
2019-04-05T20:23:59.607Z,99.90
2019-04-05T20:26:30.214Z,99.90
2019-04-05T20:29:00.864Z,99.90
2019-04-05T20:31:31.518Z,99.90
2019-04-05T20:34:02.191Z,99.90
2019-04-05T20:36:32.887Z,99.90
2019-04-05T20:39:05.133Z,99.90
2019-04-05T20:41:36.026Z,99.90
2019-04-05T20:44:06.626Z,99.90
2019-04-05T20:46:37.247Z,99.90
2019-04-05T20:49:07.899Z,99.90
2019-04-05T20:51:38.496Z,99.90
2019-04-05T20:54:09.115Z,99.90
2019-04-05T20:56:40.015Z,99.90
2019-04-05T20:59:10.951Z,99.90
2019-04-05T21:01:41.560Z,99.90
2019-04-05T21:04:12.180Z,99.90
2019-04-05T21:06:42.804Z,99.90
2019-04-05T21:09:13.866Z,99.90
2019-04-05T21:11:44.440Z,99.90
2019-04-05T21:14:15.067Z,99.90
2019-04-05T21:16:45.701Z,99.90
2019-04-05T21:19:16.361Z,99.90
2019-04-05T21:21:47.456Z,99.90
2019-04-05T21:24:20.870Z,99.90
2019-04-05T21:26:51.620Z,99.90
2019-04-05T21:29:22.865Z,99.90
2019-04-05T21:31:53.380Z,99.90
2019-04-05T21:34:24.009Z,99.90
2019-04-05T21:36:54.539Z,99.90
2019-04-05T21:39:29.537Z,99.90
2019-04-05T21:42:00.160Z,99.90
2019-04-05T21:44:31.355Z,99.90
2019-04-05T21:47:02.149Z,99.90
2019-04-05T21:49:34.248Z,99.90
2019-04-05T21:52:05.408Z,99.90
2019-04-05T21:54:42.745Z,99.90
2019-04-05T21:57:14.521Z,99.90
2019-04-05T21:59:45.157Z,99.90
2019-04-05T22:02:15.867Z,99.90
2019-04-05T22:04:46.566Z,99.90
2019-04-05T22:07:18.341Z,99.90
2019-04-05T22:09:49.154Z,99.90
2019-04-05T22:12:20.110Z,99.90
2019-04-05T22:14:50.760Z,99.90
2019-04-05T22:17:22.094Z,99.90
2019-04-05T22:19:53.207Z,99.90
2019-04-05T22:22:24.251Z,99.90
2019-04-05T22:25:07.781Z,99.90
2019-04-05T22:27:38.401Z,99.90
2019-04-05T22:30:09.437Z,99.90
2019-04-05T22:32:40.152Z,99.90
2019-04-05T22:35:14.622Z,99.90
2019-04-05T22:37:45.270Z,99.90
2019-04-05T22:40:15.978Z,99.90
2019-04-05T22:42:46.680Z,99.90
2019-04-05T22:45:17.306Z,99.90
2019-04-05T22:47:52.043Z,99.90
2019-04-05T22:50:23.212Z,99.90
2019-04-05T22:52:54.293Z,99.90
2019-04-05T22:55:24.846Z,99.90
2019-04-05T22:57:55.925Z,99.90
2019-04-05T23:00:32.483Z,99.90
2019-04-05T23:03:04.043Z,99.90
2019-04-05T23:05:35.156Z,99.90
2019-04-05T23:08:06.163Z,99.90
2019-04-05T23:10:48.967Z,99.90
2019-04-05T23:16:24.657Z,99.90
2019-04-05T23:18:55.283Z,99.90
2019-04-05T23:21:28.953Z,99.90
2019-04-05T23:23:59.538Z,99.90
2019-04-05T23:26:30.214Z,99.90
2019-04-05T23:29:00.843Z,99.90
2019-04-05T23:31:32.642Z,99.90
2019-04-05T23:34:03.178Z,99.90
2019-04-05T23:36:33.871Z,99.90
2019-04-05T23:39:05.847Z,99.90
2019-04-05T23:41:36.482Z,99.90
2019-04-05T23:44:07.141Z,99.90
2019-04-05T23:46:37.803Z,99.90
2019-04-05T23:49:08.433Z,99.90
2019-04-05T23:51:39.135Z,99.90
2019-04-05T23:54:09.743Z,99.90
2019-04-05T23:56:41.372Z,99.90
2019-04-05T23:59:12.019Z,99.90
